DTTJ/DJE METAR and TAF weather

Enter ICAO airport designator
Station Type Date Time Source
DTTJ METAR 2021/05/11 16:30 UTC NOAA

DTTJ 111630Z 03021KT 9999 FEW020 22/17 Q1013 NOSIG


Station Type Date Time Source
DTTJ Decoded METAR 2021/05/11 16:30 UTC NOAA

Djerba Mellita, Tunisia (DTTJ) 33-52N 010-46E 4M
May 11, 2021 - 12:30 PM EDT / 2021.05.11 1630 UTC
Wind: from the NNE (030 degrees) at 24 MPH (21 KT):0
Visibility: greater than 7 mile(s):0
Sky conditions: mostly clear
Temperature: 71 F (22 C)
Dew Point: 62 F (17 C)
Relative Humidity: 73%
Pressure (altimeter): 29.91 in. Hg (1013 hPa)
ob: DTTJ 111630Z 03021KT 9999 FEW020 22/17 Q1013 NOSIG
cycle: 16

Station Type Date Time Source
DTTJ TAF 2021/05/11 12:16 UTC NOAA

TAF DTTJ 111100Z 1112/1212 03017KT 8000 NSC
TEMPO 1113/1122 02023G33KT
BECMG 1210/1212 07008KT

Example: see airport list